createdAt,value
2022-07-26T00:00:17.063Z,4.90
2022-07-26T00:02:47.526Z,7.67
2022-07-26T00:05:18.242Z,5.03
2022-07-26T00:07:48.040Z,5.50
2022-07-26T00:10:17.461Z,5.03
2022-07-26T00:12:48.194Z,5.93
2022-07-26T00:15:17.394Z,4.50
2022-07-26T00:17:46.676Z,5.40
2022-07-26T00:20:15.961Z,4.97
2022-07-26T00:22:45.259Z,4.83
2022-07-26T00:25:14.739Z,5.27
2022-07-26T00:27:44.139Z,5.60
2022-07-26T00:30:16.639Z,5.63
2022-07-26T00:32:46.239Z,5.10
2022-07-26T00:35:15.939Z,5.40
2022-07-26T00:37:45.260Z,6.07
2022-07-26T00:40:16.029Z,6.47
2022-07-26T00:42:45.921Z,4.43
2022-07-26T00:45:17.927Z,5.70
2022-07-26T00:47:47.571Z,4.43
2022-07-26T00:50:18.959Z,4.70
2022-07-26T00:52:51.056Z,5.20
2022-07-26T00:55:21.499Z,5.70
2022-07-26T00:57:50.840Z,4.80
2022-07-26T01:00:28.392Z,4.90
2022-07-26T01:02:58.970Z,4.80
2022-07-26T01:05:30.348Z,5.40
2022-07-26T01:08:00.311Z,6.20
2022-07-26T01:10:29.417Z,5.77
2022-07-26T01:12:58.745Z,4.73
2022-07-26T01:15:29.508Z,4.70
2022-07-26T01:17:58.861Z,4.93
2022-07-26T01:20:28.279Z,4.77
2022-07-26T01:22:59.056Z,5.70
2022-07-26T01:25:43.214Z,5.40
2022-07-26T01:28:19.486Z,5.70
2022-07-26T01:30:49.737Z,4.77
2022-07-26T01:33:19.068Z,5.37
2022-07-26T01:35:48.263Z,5.07
2022-07-26T01:38:19.851Z,5.83
2022-07-26T01:40:49.131Z,6.20
2022-07-26T01:43:18.463Z,5.17
2022-07-26T01:45:48.418Z,4.67
2022-07-26T01:48:17.883Z,4.90
2022-07-26T01:50:47.174Z,6.10
2022-07-26T01:53:18.023Z,5.30
2022-07-26T01:55:47.283Z,5.03
2022-07-26T01:58:16.605Z,6.03
2022-07-26T02:00:45.956Z,6.97
2022-07-26T02:03:15.253Z,4.80
2022-07-26T02:05:44.702Z,5.87
2022-07-26T02:08:14.324Z,4.77
2022-07-26T02:13:28.968Z,6.27
2022-07-26T02:15:59.234Z,5.67
2022-07-26T02:18:29.804Z,5.60
2022-07-26T02:20:59.741Z,5.30
2022-07-26T02:23:29.363Z,6.50
2022-07-26T02:26:01.748Z,4.60
2022-07-26T02:28:32.204Z,5.20
2022-07-26T02:31:01.338Z,7.87
2022-07-26T02:33:30.344Z,6.03
2022-07-26T02:35:59.364Z,4.40
2022-07-26T02:38:28.432Z,4.57
2022-07-26T02:40:57.403Z,5.77
2022-07-26T02:43:27.212Z,5.00
2022-07-26T02:46:01.941Z,5.30
2022-07-26T02:48:31.861Z,6.03
2022-07-26T02:51:00.962Z,4.70
2022-07-26T02:53:30.051Z,5.37
2022-07-26T02:55:59.049Z,5.03
2022-07-26T02:58:28.424Z,5.00
2022-07-26T03:00:59.026Z,5.33
2022-07-26T03:03:27.988Z,5.73
2022-07-26T03:05:57.003Z,4.93
2022-07-26T03:08:26.057Z,4.83
2022-07-26T03:10:55.086Z,5.93
2022-07-26T03:13:24.099Z,4.73
2022-07-26T03:15:53.221Z,5.43
2022-07-26T03:18:23.726Z,4.97
2022-07-26T03:20:52.874Z,5.77
2022-07-26T03:23:21.872Z,4.87
2022-07-26T03:25:50.804Z,5.67
2022-07-26T03:28:19.908Z,6.17
2022-07-26T03:30:48.991Z,5.00
2022-07-26T03:33:18.223Z,4.80
2022-07-26T03:35:48.611Z,5.60
2022-07-26T03:38:17.712Z,4.97
2022-07-26T03:40:46.764Z,5.17
2022-07-26T03:43:16.734Z,5.07
2022-07-26T03:45:46.437Z,4.90
2022-07-26T03:48:15.593Z,5.23
2022-07-26T03:50:44.568Z,4.57
2022-07-26T03:53:15.274Z,3.93
2022-07-26T03:56:01.387Z,5.27
2022-07-26T03:58:30.348Z,5.93
2022-07-26T04:00:59.311Z,4.33
2022-07-26T04:03:28.288Z,4.33
2022-07-26T04:05:57.880Z,5.80
2022-07-26T04:08:28.668Z,4.60
2022-07-26T04:10:57.870Z,4.90
2022-07-26T04:13:26.888Z,4.27
2022-07-26T04:15:56.091Z,4.13
2022-07-26T04:18:25.949Z,4.30
2022-07-26T04:20:54.998Z,5.27
2022-07-26T04:23:24.049Z,4.13
2022-07-26T04:25:54.517Z,4.00
2022-07-26T04:28:24.831Z,4.20
2022-07-26T04:30:54.000Z,4.10
2022-07-26T04:33:23.090Z,4.73
2022-07-26T04:35:52.058Z,4.07
2022-07-26T04:38:21.337Z,4.20
2022-07-26T04:40:51.566Z,5.00
2022-07-26T04:43:21.987Z,3.80
2022-07-26T04:45:50.896Z,5.00
2022-07-26T04:48:20.309Z,4.30
2022-07-26T04:50:49.298Z,3.90
2022-07-26T04:53:18.300Z,3.93
2022-07-26T04:55:48.219Z,4.33
2022-07-26T04:58:17.175Z,4.97
2022-07-26T05:01:09.553Z,3.80
2022-07-26T05:03:38.912Z,4.47
2022-07-26T05:06:08.201Z,3.57
2022-07-26T05:08:37.317Z,4.23
2022-07-26T05:11:06.227Z,3.50
2022-07-26T05:13:35.265Z,4.00
2022-07-26T05:16:11.799Z,4.47
2022-07-26T05:22:03.427Z,3.50
2022-07-26T05:24:32.590Z,3.87
2022-07-26T05:27:01.638Z,3.63
2022-07-26T05:29:30.657Z,4.20
2022-07-26T05:32:01.065Z,3.70
2022-07-26T05:34:30.156Z,3.37
2022-07-26T05:36:59.219Z,3.67
2022-07-26T05:39:28.699Z,4.87
2022-07-26T05:41:57.637Z,3.67
2022-07-26T05:44:26.637Z,3.50
2022-07-26T05:47:00.811Z,3.93
2022-07-26T05:49:39.798Z,3.97
2022-07-26T05:52:09.809Z,3.70
2022-07-26T05:54:39.167Z,5.57
2022-07-26T05:57:08.129Z,3.97
2022-07-26T05:59:37.266Z,3.97
2022-07-26T06:02:08.732Z,3.63
2022-07-26T06:04:38.247Z,3.13
2022-07-26T06:07:07.281Z,3.90
2022-07-26T06:09:36.230Z,5.03
2022-07-26T06:12:05.596Z,3.70
2022-07-26T06:14:34.775Z,5.87
2022-07-26T06:17:04.798Z,4.40
2022-07-26T06:19:36.437Z,5.30
2022-07-26T06:22:05.829Z,5.70
2022-07-26T06:24:34.738Z,3.57
2022-07-26T06:27:04.724Z,3.50
2022-07-26T06:29:34.644Z,3.93
2022-07-26T06:32:03.756Z,3.83
2022-07-26T06:34:32.779Z,3.47
2022-07-26T06:37:03.248Z,3.50
2022-07-26T06:39:32.627Z,3.60
2022-07-26T06:42:01.552Z,4.27
2022-07-26T06:44:30.538Z,3.47
2022-07-26T06:46:59.653Z,3.47
2022-07-26T06:49:28.635Z,3.60
2022-07-26T06:51:58.677Z,4.83
2022-07-26T06:54:29.107Z,3.53
2022-07-26T06:56:58.053Z,3.50
2022-07-26T06:59:26.977Z,4.17
2022-07-26T07:02:00.145Z,3.87
2022-07-26T07:04:30.425Z,5.03
2022-07-26T07:07:05.229Z,3.77
2022-07-26T07:09:37.928Z,3.73
2022-07-26T07:12:10.223Z,3.30
2022-07-26T07:14:39.679Z,3.50
2022-07-26T07:17:12.867Z,3.73
2022-07-26T07:19:42.955Z,3.80
2022-07-26T07:22:13.067Z,4.30
2022-07-26T07:24:46.755Z,3.70
2022-07-26T07:27:17.899Z,3.57
2022-07-26T07:29:46.943Z,4.07
2022-07-26T07:32:18.888Z,3.50
2022-07-26T07:34:49.458Z,4.85
2022-07-26T07:37:20.130Z,3.97
2022-07-26T07:39:51.296Z,3.93
2022-07-26T07:42:20.834Z,3.88
2022-07-26T07:44:50.452Z,3.60
2022-07-26T07:47:19.553Z,3.72
2022-07-26T07:49:48.435Z,3.70
2022-07-26T07:52:17.596Z,4.05
2022-07-26T07:54:47.133Z,3.30
2022-07-26T07:57:17.714Z,4.45
2022-07-26T07:59:46.756Z,3.92
2022-07-26T08:02:16.314Z,4.30
2022-07-26T08:04:45.423Z,3.83
2022-07-26T08:07:45.037Z,5.57
2022-07-26T08:10:14.164Z,3.63
2022-07-26T08:12:44.773Z,3.58
2022-07-26T08:15:14.579Z,4.22
2022-07-26T08:17:43.537Z,3.65
2022-07-26T08:20:15.932Z,4.45
2022-07-26T08:22:45.175Z,4.38
2022-07-26T08:25:14.297Z,3.85
2022-07-26T08:27:51.107Z,3.55
2022-07-26T08:30:31.705Z,3.67
2022-07-26T08:33:00.770Z,4.10
2022-07-26T08:35:31.007Z,3.80
2022-07-26T08:38:00.536Z,3.97
2022-07-26T08:40:29.479Z,4.35
2022-07-26T08:42:59.926Z,4.88
2022-07-26T08:45:30.770Z,4.18
2022-07-26T08:48:18.474Z,4.53
2022-07-26T08:50:48.267Z,3.85
2022-07-26T08:53:17.755Z,3.97
2022-07-26T08:58:41.073Z,3.95
2022-07-26T09:01:13.396Z,3.85
2022-07-26T09:03:43.041Z,3.72
2022-07-26T09:06:17.077Z,4.70
2022-07-26T09:08:47.058Z,3.72
2022-07-26T09:11:30.348Z,3.88
2022-07-26T09:14:02.580Z,4.10
2022-07-26T09:16:37.286Z,3.90
2022-07-26T09:19:19.614Z,4.70
2022-07-26T09:21:48.630Z,4.13
2022-07-26T09:24:32.928Z,3.80
2022-07-26T09:27:07.467Z,4.60
2022-07-26T09:29:49.762Z,4.63
2022-07-26T09:32:20.901Z,4.28
2022-07-26T09:34:53.719Z,3.42
2022-07-26T09:37:37.699Z,3.85
2022-07-26T09:40:08.902Z,3.85
2022-07-26T09:42:37.987Z,4.20
2022-07-26T09:45:18.299Z,3.85
2022-07-26T09:47:47.384Z,3.95
2022-07-26T09:50:18.868Z,3.70
2022-07-26T09:53:14.990Z,4.38
2022-07-26T09:55:58.649Z,3.58
2022-07-26T09:58:28.500Z,4.13
2022-07-26T10:01:02.338Z,3.70
2022-07-26T10:03:32.207Z,4.07
2022-07-26T10:06:02.067Z,4.32
2022-07-26T10:08:33.067Z,4.47
2022-07-26T10:11:07.227Z,3.72
2022-07-26T10:13:36.349Z,4.65
2022-07-26T10:16:07.930Z,3.80
2022-07-26T10:18:47.774Z,3.75
2022-07-26T10:21:23.713Z,4.32
2022-07-26T10:23:53.702Z,4.00
2022-07-26T10:26:43.253Z,3.55
2022-07-26T10:29:31.627Z,3.88
2022-07-26T10:32:21.890Z,3.88
2022-07-26T10:34:50.956Z,4.03
2022-07-26T10:37:28.472Z,6.07
2022-07-26T10:40:18.385Z,4.28
2022-07-26T10:42:47.790Z,4.97
2022-07-26T10:45:23.172Z,3.60
2022-07-26T10:48:19.057Z,3.65
2022-07-26T10:50:50.389Z,4.82
2022-07-26T10:53:22.390Z,4.13
2022-07-26T10:55:53.777Z,4.38
2022-07-26T10:58:23.558Z,4.40
2022-07-26T11:01:02.549Z,4.57
2022-07-26T11:03:40.427Z,3.85
2022-07-26T11:06:14.621Z,4.82
2022-07-26T11:08:47.896Z,3.58
2022-07-26T11:11:30.737Z,3.63
2022-07-26T11:14:08.361Z,4.65
2022-07-26T11:16:42.689Z,4.07
2022-07-26T11:19:17.802Z,3.92
2022-07-26T11:21:48.108Z,3.35
2022-07-26T11:24:17.219Z,8.13
2022-07-26T11:26:48.084Z,4.75
2022-07-26T11:29:37.926Z,3.90
2022-07-26T11:32:16.431Z,4.32
2022-07-26T11:34:48.057Z,4.00
2022-07-26T11:37:17.135Z,4.15
2022-07-26T11:39:46.176Z,6.22
2022-07-26T11:42:16.650Z,4.32
2022-07-26T11:44:46.415Z,3.80
2022-07-26T11:47:16.903Z,3.90
2022-07-26T11:49:52.052Z,3.85
2022-07-26T11:52:36.661Z,3.50
2022-07-26T11:55:06.229Z,4.00
2022-07-26T11:57:35.218Z,3.85
2022-07-26T12:00:04.773Z,3.60
2022-07-26T12:02:33.951Z,3.78
2022-07-26T12:05:19.151Z,4.35
2022-07-26T12:07:59.649Z,4.30
2022-07-26T12:10:29.418Z,4.30
2022-07-26T12:13:12.500Z,3.97
2022-07-26T12:15:49.265Z,5.03
2022-07-26T12:18:26.436Z,3.88
2022-07-26T12:21:05.220Z,4.90
2022-07-26T12:23:45.828Z,3.90
2022-07-26T12:26:22.288Z,5.68
2022-07-26T12:28:51.327Z,4.35
2022-07-26T12:31:28.181Z,4.47
2022-07-26T12:33:57.568Z,4.15
2022-07-26T12:36:29.779Z,4.25
2022-07-26T12:39:00.777Z,3.97
2022-07-26T12:41:34.989Z,4.80
2022-07-26T12:44:04.086Z,4.25
2022-07-26T12:46:34.854Z,4.30
2022-07-26T12:49:05.301Z,4.60
2022-07-26T12:51:36.107Z,4.45
2022-07-26T12:54:07.601Z,3.65
2022-07-26T12:56:36.710Z,3.83
2022-07-26T12:59:05.650Z,4.18
2022-07-26T13:01:35.079Z,3.97
2022-07-26T13:04:04.482Z,4.00
2022-07-26T13:06:34.976Z,3.92
2022-07-26T13:09:03.897Z,4.30
2022-07-26T13:11:33.434Z,4.53
2022-07-26T13:14:02.999Z,4.18
2022-07-26T13:16:32.119Z,4.20
2022-07-26T13:19:01.169Z,4.38
2022-07-26T13:21:33.564Z,4.35
2022-07-26T13:24:06.790Z,4.90
2022-07-26T13:26:37.928Z,4.10
2022-07-26T13:29:07.188Z,4.40
2022-07-26T13:31:36.377Z,4.20
2022-07-26T13:34:05.578Z,4.65
2022-07-26T13:36:34.767Z,5.13
2022-07-26T13:39:06.077Z,4.78
2022-07-26T13:41:35.778Z,5.72
2022-07-26T13:44:06.932Z,7.05
2022-07-26T13:46:36.473Z,5.55
2022-07-26T13:49:08.600Z,6.30
2022-07-26T13:51:56.986Z,4.95
2022-07-26T13:54:29.694Z,5.50
2022-07-26T13:56:59.685Z,5.25
2022-07-26T13:59:29.034Z,5.25
2022-07-26T14:01:58.403Z,5.15
2022-07-26T14:04:29.096Z,6.03
2022-07-26T14:06:58.409Z,4.85
2022-07-26T14:09:28.896Z,5.93
2022-07-26T14:11:57.974Z,5.38
2022-07-26T14:14:26.987Z,5.10
2022-07-26T14:16:56.132Z,6.57
2022-07-26T14:19:25.125Z,5.35
2022-07-26T14:21:59.726Z,5.20
2022-07-26T14:24:31.100Z,5.30
2022-07-26T14:27:02.822Z,5.40
2022-07-26T14:29:31.944Z,5.20
2022-07-26T14:32:01.119Z,7.55
2022-07-26T14:34:30.147Z,5.32
2022-07-26T14:36:59.133Z,5.50
2022-07-26T14:39:28.100Z,5.88
2022-07-26T14:41:59.650Z,7.70
2022-07-26T14:44:28.769Z,6.07
2022-07-26T14:46:57.744Z,7.55
2022-07-26T14:49:27.969Z,5.95
2022-07-26T14:51:57.220Z,6.15
2022-07-26T14:54:26.102Z,6.18
2022-07-26T14:56:55.723Z,6.88
2022-07-26T14:59:26.345Z,7.03
2022-07-26T15:01:55.541Z,7.25
2022-07-26T15:04:24.629Z,7.80
2022-07-26T15:06:53.905Z,7.35
2022-07-26T15:09:22.859Z,9.75
2022-07-26T15:11:51.861Z,8.55
2022-07-26T15:14:20.859Z,8.40
2022-07-26T15:16:51.507Z,9.63
2022-07-26T15:19:25.368Z,8.25
2022-07-26T15:21:56.190Z,7.57
2022-07-26T15:24:25.272Z,8.93
2022-07-26T15:26:54.480Z,8.48
2022-07-26T15:29:23.491Z,6.90
2022-07-26T15:31:53.982Z,8.40
2022-07-26T15:34:23.098Z,8.52
2022-07-26T15:36:52.500Z,7.85
2022-07-26T15:39:21.738Z,6.37
2022-07-26T15:41:51.039Z,6.97
2022-07-26T15:44:21.575Z,10.63
2022-07-26T15:46:53.533Z,6.63
2022-07-26T15:49:22.611Z,8.50
2022-07-26T15:51:51.915Z,6.53
2022-07-26T15:54:21.391Z,6.87
2022-07-26T15:56:50.554Z,6.47
2022-07-26T15:59:19.419Z,28.77
2022-07-26T16:01:48.452Z,6.70
2022-07-26T16:04:18.973Z,6.33
2022-07-26T16:06:48.610Z,8.97
2022-07-26T16:09:19.104Z,7.33
2022-07-26T16:11:49.077Z,8.20
2022-07-26T16:14:18.629Z,10.60
2022-07-26T16:16:47.721Z,11.10
2022-07-26T16:19:18.198Z,15.00
2022-07-26T16:21:47.378Z,7.23
2022-07-26T16:24:16.378Z,6.83
2022-07-26T16:26:47.738Z,9.63
2022-07-26T16:29:16.746Z,6.27
2022-07-26T16:31:46.168Z,6.10
2022-07-26T16:34:15.224Z,6.00
2022-07-26T16:36:45.698Z,7.67
2022-07-26T16:39:15.085Z,8.13
2022-07-26T16:41:44.580Z,18.20
2022-07-26T16:44:13.738Z,5.17
2022-07-26T16:46:42.736Z,7.57
2022-07-26T16:49:14.475Z,8.93
2022-07-26T16:51:45.255Z,5.67
2022-07-26T16:54:14.315Z,5.93
2022-07-26T16:56:43.381Z,11.20
2022-07-26T16:59:12.553Z,5.93
2022-07-26T17:01:41.838Z,5.20
2022-07-26T17:04:11.666Z,6.23
2022-07-26T17:06:40.582Z,5.00
2022-07-26T17:09:15.274Z,5.20
2022-07-26T17:11:44.691Z,5.87
2022-07-26T17:14:16.454Z,3.80
2022-07-26T17:16:45.566Z,11.90
2022-07-26T17:19:14.867Z,13.20
2022-07-26T17:21:43.786Z,3.77
2022-07-26T17:24:14.200Z,4.87
2022-07-26T17:26:43.142Z,5.00
2022-07-26T17:29:12.549Z,3.73
2022-07-26T17:31:41.743Z,4.07
2022-07-26T17:34:10.719Z,3.17
2022-07-26T17:36:40.049Z,5.03
2022-07-26T17:39:14.858Z,5.90
2022-07-26T17:41:49.399Z,4.67
2022-07-26T17:44:18.528Z,4.67
2022-07-26T17:46:47.621Z,4.43
2022-07-26T17:49:17.191Z,7.90
2022-07-26T17:51:46.428Z,8.30
2022-07-26T17:54:15.463Z,8.17
2022-07-26T17:56:46.187Z,7.90
2022-07-26T17:59:16.124Z,5.30
2022-07-26T18:01:50.572Z,4.73
2022-07-26T18:04:23.351Z,8.00
2022-07-26T18:06:52.679Z,6.17
2022-07-26T18:09:21.874Z,4.73
2022-07-26T18:11:52.259Z,6.67
2022-07-26T18:14:22.024Z,5.57
2022-07-26T18:16:53.934Z,6.07
2022-07-26T18:19:24.409Z,5.27
2022-07-26T18:21:53.946Z,6.67
2022-07-26T18:24:23.317Z,6.40
2022-07-26T18:26:54.057Z,5.90
2022-07-26T18:29:22.997Z,4.47
2022-07-26T18:31:52.114Z,7.50
2022-07-26T18:34:21.204Z,7.43
2022-07-26T18:36:50.225Z,5.37
2022-07-26T18:39:19.328Z,7.03
2022-07-26T18:41:48.416Z,6.43
2022-07-26T18:44:18.792Z,5.13
2022-07-26T18:46:47.911Z,6.60
2022-07-26T18:49:20.493Z,10.27
2022-07-26T18:51:50.550Z,4.63
2022-07-26T18:54:21.665Z,5.10
2022-07-26T18:56:50.699Z,8.57
2022-07-26T18:59:21.348Z,8.00
2022-07-26T19:01:50.439Z,7.03
2022-07-26T19:04:19.660Z,6.40
2022-07-26T19:06:51.108Z,7.60
2022-07-26T19:09:21.502Z,6.77
2022-07-26T19:11:50.617Z,6.53
2022-07-26T19:14:21.170Z,5.20
2022-07-26T19:16:50.856Z,5.87
2022-07-26T19:19:19.748Z,6.57
2022-07-26T19:21:49.663Z,7.43
2022-07-26T19:24:18.809Z,5.20
2022-07-26T19:26:50.508Z,5.83
2022-07-26T19:29:20.955Z,5.87
2022-07-26T19:31:50.228Z,6.37
2022-07-26T19:34:19.159Z,9.00
2022-07-26T19:36:48.164Z,8.80
2022-07-26T19:39:17.444Z,10.87
2022-07-26T19:41:48.122Z,7.47
2022-07-26T19:44:18.113Z,6.20
2022-07-26T19:46:51.953Z,9.80
2022-07-26T19:49:23.365Z,8.63
2022-07-26T19:51:53.522Z,6.17
2022-07-26T19:54:23.292Z,8.57
2022-07-26T19:56:52.324Z,8.13
2022-07-26T19:59:24.419Z,9.50
2022-07-26T20:01:58.468Z,6.57
2022-07-26T20:04:27.826Z,7.00
2022-07-26T20:06:56.787Z,8.13
2022-07-26T20:09:27.239Z,9.90
2022-07-26T20:11:56.200Z,6.37
2022-07-26T20:14:25.279Z,7.30
2022-07-26T20:16:57.294Z,9.00
2022-07-26T20:19:28.355Z,7.00
2022-07-26T20:21:59.077Z,10.97
2022-07-26T20:24:31.802Z,8.17
2022-07-26T20:27:01.041Z,9.73
2022-07-26T20:29:30.214Z,6.37
2022-07-26T20:32:00.664Z,6.83
2022-07-26T20:34:31.206Z,6.57
2022-07-26T20:37:00.150Z,9.37
2022-07-26T20:39:29.490Z,10.80
2022-07-26T20:41:58.759Z,10.43
2022-07-26T20:44:30.496Z,10.43
2022-07-26T20:47:02.220Z,6.93
2022-07-26T20:49:31.172Z,9.43
2022-07-26T20:52:00.206Z,10.10
2022-07-26T20:54:29.070Z,7.73
2022-07-26T20:56:58.140Z,9.90
2022-07-26T20:59:28.849Z,14.97
2022-07-26T21:01:57.845Z,14.03
2022-07-26T21:04:28.245Z,8.63
2022-07-26T21:06:57.610Z,9.03
2022-07-26T21:09:27.675Z,11.77
2022-07-26T21:11:56.648Z,8.43
2022-07-26T21:14:25.637Z,12.97
2022-07-26T21:16:54.656Z,8.57
2022-07-26T21:19:23.597Z,10.37
2022-07-26T21:21:55.035Z,8.83
2022-07-26T21:24:23.920Z,11.57
2022-07-26T21:26:52.922Z,9.33
2022-07-26T21:29:21.795Z,10.60
2022-07-26T21:31:50.776Z,8.23
2022-07-26T21:34:19.982Z,10.80
2022-07-26T21:36:49.150Z,10.47
2022-07-26T21:39:19.855Z,15.10
2022-07-26T21:41:49.458Z,11.00
2022-07-26T21:44:21.607Z,7.47
2022-07-26T21:46:53.113Z,14.80
2022-07-26T21:49:22.128Z,14.17
2022-07-26T21:51:51.410Z,9.83
2022-07-26T21:54:21.744Z,10.87
2022-07-26T21:56:50.744Z,19.30
2022-07-26T21:59:19.853Z,15.50
2022-07-26T22:02:43.785Z,19.07
2022-07-26T22:05:26.550Z,12.27
2022-07-26T22:07:55.689Z,16.13
2022-07-26T22:10:26.304Z,12.50
2022-07-26T22:12:55.418Z,11.03
2022-07-26T22:15:24.627Z,8.60
2022-07-26T22:21:34.340Z,10.40
2022-07-26T22:24:03.340Z,10.63
2022-07-26T22:29:40.134Z,13.10
2022-07-26T22:32:09.316Z,11.07
2022-07-26T22:34:38.257Z,9.13
2022-07-26T22:37:07.157Z,12.60
2022-07-26T22:39:36.110Z,9.63
2022-07-26T22:42:15.222Z,10.37
2022-07-26T22:44:45.191Z,10.67
2022-07-26T22:47:14.224Z,12.43
2022-07-26T22:49:43.240Z,14.80
2022-07-26T22:52:12.323Z,14.20
2022-07-26T22:54:41.264Z,18.77
2022-07-26T22:57:11.853Z,16.80
2022-07-26T22:59:40.764Z,8.37
2022-07-26T23:02:09.765Z,16.13
2022-07-26T23:04:38.864Z,14.67
2022-07-26T23:07:08.192Z,12.57
2022-07-26T23:09:38.018Z,11.17
2022-07-26T23:12:07.585Z,13.27
2022-07-26T23:14:38.029Z,9.10
2022-07-26T23:17:06.993Z,11.77
2022-07-26T23:19:36.065Z,12.00
2022-07-26T23:22:04.981Z,12.97
2022-07-26T23:24:33.991Z,10.27
2022-07-26T23:27:03.409Z,13.33
2022-07-26T23:29:32.632Z,14.63
2022-07-26T23:32:03.063Z,10.77
2022-07-26T23:34:31.893Z,12.13
2022-07-26T23:37:01.113Z,13.47
2022-07-26T23:39:30.417Z,12.10
2022-07-26T23:42:03.047Z,13.83
2022-07-26T23:44:32.722Z,12.63
2022-07-26T23:47:03.595Z,12.10
2022-07-26T23:49:32.968Z,12.87
2022-07-26T23:52:02.078Z,9.00
2022-07-26T23:54:30.991Z,9.20
2022-07-26T23:57:00.079Z,11.73
2022-07-26T23:59:29.042Z,10.07
